Time;durP1;ratioP1;P1;durP2;ratioP2;P2;SDS_P1;SDS_P2;PMS_P1;PMS_P2;Temp;Humidity;BMP_temperature;BMP_pressure;BME280_temperature;BME280_humidity;BME280_pressure;Samples;Min_cycle;Max_cycle;Signal;HPM_P1;HPM_P2
2021/10/17 00:00:04;;;;;;;14.25;4.07;;;;;;;;;;5086758;28;20079;-81
2021/10/17 00:02:36;;;;;;;14.95;3.92;;;;;;;;;;5064381;28;20205;-81
2021/10/17 00:05:12;;;;;;;14.50;3.63;;;;;;;;;;5093239;28;20510;-82
2021/10/17 00:07:41;;;;;;;20.90;4.07;;;;;;;;;;5092763;28;20142;-81
2021/10/17 00:10:09;;;;;;;14.10;3.58;;;;;;;;;;5086940;28;20474;-82
2021/10/17 00:13:00;;;;;;;;;;;;;;;;;;;;;
2021/10/17 00:15:41;;;;;;;10.95;3.28;;;;;;;;;;5089353;28;20133;-81
2021/10/17 00:18:21;;;;;;;21.13;3.78;;;;;;;;;;5068255;28;20557;-81
2021/10/17 00:20:51;;;;;;;20.08;3.70;;;;;;;;;;5089157;28;20166;-81
2021/10/17 00:23:22;;;;;;;13.63;3.72;;;;;;;;;;5080068;28;20048;-81
2021/10/17 00:25:57;;;;;;;17.40;3.88;;;;;;;;;;5057207;28;20074;-81
2021/10/17 00:28:36;;;;;;;16.88;3.85;;;;;;;;;;5094267;28;20048;-82
2021/10/17 00:34:44;;;;;;;9.30;3.58;;;;;;;;;;5076229;28;20112;-81
2021/10/17 00:37:21;;;;;;;12.07;4.18;;;;;;;;;;5074638;28;20063;-81
2021/10/17 00:39:51;;;;;;;10.15;3.13;;;;;;;;;;5068979;28;20036;-81
2021/10/17 00:42:29;;;;;;;12.27;3.85;;;;;;;;;;5080507;28;20070;-81
2021/10/17 00:45:08;;;;;;;12.70;3.40;;;;;;;;;;5074106;28;20176;-81
2021/10/17 00:48:05;;;;;;;13.65;3.58;;;;;;;;;;5068938;28;20124;-82
2021/10/17 00:50:38;;;;;;;7.78;3.35;;;;;;;;;;5070719;28;20374;-81
2021/10/17 00:53:13;;;;;;;10.77;3.50;;;;;;;;;;5065189;28;20129;-82
2021/10/17 00:56:02;;;;;;;14.80;3.42;;;;;;;;;;5073300;28;20064;-82
2021/10/17 00:58:41;;;;;;;16.88;3.78;;;;;;;;;;5071994;28;20125;-82
2021/10/17 01:01:10;;;;;;;12.25;3.75;;;;;;;;;;5073093;28;20220;-82
2021/10/17 01:03:40;;;;;;;15.35;3.88;;;;;;;;;;5070996;28;20237;-82
2021/10/17 01:06:13;;;;;;;16.77;4.00;;;;;;;;;;5082934;28;20046;-82
2021/10/17 01:08:40;;;;;;;14.85;3.78;;;;;;;;;;5074001;28;20495;-82
2021/10/17 01:11:08;;;;;;;11.77;3.78;;;;;;;;;;5075981;28;20355;-81
2021/10/17 01:13:36;;;;;;;19.98;3.92;;;;;;;;;;5059704;28;20103;-82
2021/10/17 01:16:03;;;;;;;20.45;3.80;;;;;;;;;;5078599;28;20062;-82
2021/10/17 01:18:30;;;;;;;13.88;3.65;;;;;;;;;;5061135;28;20049;-82
2021/10/17 01:21:00;;;;;;;19.80;4.10;;;;;;;;;;5071111;28;20059;-82
2021/10/17 01:23:27;;;;;;;14.60;3.85;;;;;;;;;;5078720;28;20052;-82
2021/10/17 01:25:53;;;;;;;17.48;3.88;;;;;;;;;;5079602;28;20345;-82
2021/10/17 01:28:20;;;;;;;15.43;4.00;;;;;;;;;;5096570;28;20044;-82
2021/10/17 01:30:48;;;;;;;12.25;3.80;;;;;;;;;;5095652;28;20113;-82
2021/10/17 01:33:15;;;;;;;15.65;4.30;;;;;;;;;;5096996;28;20044;-82
2021/10/17 01:35:42;;;;;;;15.10;4.00;;;;;;;;;;5096835;28;20070;-82
2021/10/17 01:38:10;;;;;;;16.55;4.32;;;;;;;;;;5096965;28;20048;-82
2021/10/17 01:40:37;;;;;;;16.17;4.07;;;;;;;;;;5073508;28;20088;-82
2021/10/17 01:43:04;;;;;;;16.58;4.15;;;;;;;;;;5077326;28;20088;-82
2021/10/17 01:45:31;;;;;;;15.85;4.60;;;;;;;;;;5078004;28;20151;-82
2021/10/17 01:47:58;;;;;;;16.02;3.72;;;;;;;;;;5077656;28;20056;-82
2021/10/17 01:50:25;;;;;;;20.80;4.43;;;;;;;;;;5091146;28;20052;-82
2021/10/17 01:52:52;;;;;;;12.80;4.30;;;;;;;;;;5095231;28;20052;-82
2021/10/17 01:55:19;;;;;;;14.05;4.13;;;;;;;;;;5077956;28;20078;-82
2021/10/17 01:57:46;;;;;;;11.32;3.90;;;;;;;;;;5071816;28;20083;-81
2021/10/17 02:00:16;;;;;;;13.68;3.95;;;;;;;;;;5064679;28;20067;-81
2021/10/17 02:02:58;;;;;;;12.38;3.60;;;;;;;;;;5066660;28;20052;-81
2021/10/17 02:05:32;;;;;;;15.95;3.70;;;;;;;;;;5077665;28;20159;-81
2021/10/17 02:08:04;;;;;;;16.75;4.10;;;;;;;;;;5081733;28;20048;-81
2021/10/17 02:10:55;;;;;;;14.95;4.30;;;;;;;;;;5101362;28;20110;-82
2021/10/17 02:13:34;;;;;;;14.98;3.92;;;;;;;;;;5104955;28;20123;-82
2021/10/17 02:16:03;;;;;;;14.30;4.13;;;;;;;;;;5083055;28;20036;-81
2021/10/17 02:18:29;;;;;;;18.33;3.80;;;;;;;;;;5112864;28;20040;-81
2021/10/17 02:20:56;;;;;;;14.10;3.90;;;;;;;;;;5093117;28;20052;-81
2021/10/17 02:23:34;;;;;;;17.83;4.85;;;;;;;;;;5106753;28;20100;-81
2021/10/17 02:26:01;;;;;;;19.00;4.60;;;;;;;;;;5107269;28;20083;-81
2021/10/17 02:28:28;;;;;;;10.10;3.58;;;;;;;;;;5081875;28;20132;-82
2021/10/17 02:31:14;;;;;;;13.63;4.18;;;;;;;;;;5108169;28;20051;-81
2021/10/17 02:33:59;;;;;;;18.42;4.10;;;;;;;;;;5104740;28;20072;-82
2021/10/17 02:36:49;;;;;;;18.95;4.53;;;;;;;;;;5106046;28;20150;-80
2021/10/17 02:39:31;;;;;;;14.30;4.13;;;;;;;;;;5081331;28;20047;-80
2021/10/17 02:42:10;;;;;;;15.65;4.47;;;;;;;;;;5078593;28;20053;-81
2021/10/17 02:44:49;;;;;;;14.88;4.18;;;;;;;;;;5098565;28;20083;-80
2021/10/17 02:47:35;;;;;;;19.27;5.18;;;;;;;;;;5096303;28;20416;-81
2021/10/17 02:50:41;;;;;;;18.77;4.75;;;;;;;;;;5077559;28;20140;-81
2021/10/17 02:53:15;;;;;;;12.02;4.47;;;;;;;;;;5067589;28;20087;-83
2021/10/17 02:55:45;;;;;;;18.70;4.15;;;;;;;;;;5097473;28;20048;-82
2021/10/17 02:58:12;;;;;;;13.40;4.30;;;;;;;;;;5075711;28;20392;-82
2021/10/17 03:00:39;;;;;;;17.88;4.80;;;;;;;;;;5076103;28;20068;-82
2021/10/17 03:03:06;;;;;;;11.82;4.20;;;;;;;;;;5076002;28;20056;-82
2021/10/17 03:05:33;;;;;;;15.02;3.97;;;;;;;;;;5075276;28;20187;-83
2021/10/17 03:08:00;;;;;;;15.07;4.63;;;;;;;;;;5097956;28;20056;-82
2021/10/17 03:10:27;;;;;;;11.95;4.50;;;;;;;;;;5097171;28;20397;-82
2021/10/17 03:12:53;;;;;;;17.60;4.32;;;;;;;;;;5098828;28;20424;-82
2021/10/17 03:15:20;;;;;;;9.35;4.28;;;;;;;;;;5080811;28;20060;-82
2021/10/17 03:18:07;;;;;;;17.88;4.28;;;;;;;;;;5080088;28;20113;-82
2021/10/17 03:20:43;;;;;;;20.23;5.35;;;;;;;;;;5077309;28;20192;-82
2021/10/17 03:23:23;;;;;;;20.83;4.97;;;;;;;;;;5072418;28;20040;-82
2021/10/17 03:26:12;;;;;;;17.50;4.70;;;;;;;;;;5075127;28;20150;-82
2021/10/17 03:28:48;;;;;;;19.13;5.50;;;;;;;;;;5097128;28;20470;-82
2021/10/17 03:31:23;;;;;;;15.10;4.38;;;;;;;;;;5071990;28;20056;-82
2021/10/17 03:34:01;;;;;;;20.90;4.88;;;;;;;;;;5075531;28;20063;-82
2021/10/17 03:36:48;;;;;;;16.50;4.15;;;;;;;;;;5079002;28;20071;-82
2021/10/17 03:39:18;;;;;;;11.63;4.40;;;;;;;;;;5097431;28;20320;-82
2021/10/17 03:41:45;;;;;;;16.63;5.32;;;;;;;;;;5075928;28;20049;-83
2021/10/17 03:44:11;;;;;;;14.73;4.25;;;;;;;;;;5079917;28;20491;-82
2021/10/17 03:46:40;;;;;;;9.55;4.45;;;;;;;;;;5078873;28;20052;-82
2021/10/17 03:49:07;;;;;;;16.25;5.55;;;;;;;;;;5105937;28;20201;-82
2021/10/17 03:51:34;;;;;;;15.70;5.03;;;;;;;;;;5093563;28;20067;-82
2021/10/17 03:54:01;;;;;;;17.48;5.00;;;;;;;;;;5071187;28;20063;-82
2021/10/17 03:56:27;;;;;;;15.07;4.63;;;;;;;;;;5068943;28;20083;-82
2021/10/17 03:58:54;;;;;;;20.60;5.45;;;;;;;;;;5078941;28;20147;-82
2021/10/17 04:01:21;;;;;;;16.42;4.60;;;;;;;;;;5067696;28;21062;-82
2021/10/17 04:03:51;;;;;;;14.55;4.80;;;;;;;;;;5075041;28;20079;-82
2021/10/17 04:06:17;;;;;;;19.48;5.25;;;;;;;;;;5070867;28;20076;-82
2021/10/17 04:08:44;;;;;;;20.23;5.32;;;;;;;;;;5072949;28;20049;-82
2021/10/17 04:11:23;;;;;;;19.83;4.65;;;;;;;;;;5077099;28;20338;-83
2021/10/17 04:16:52;;;;;;;18.42;5.65;;;;;;;;;;5074194;28;20304;-82
2021/10/17 04:19:29;;;;;;;19.20;5.95;;;;;;;;;;5065131;28;20137;-82
2021/10/17 04:22:08;;;;;;;16.20;5.43;;;;;;;;;;5063084;28;20390;-82
2021/10/17 04:24:45;;;;;;;17.00;5.13;;;;;;;;;;5059702;28;20091;-82
2021/10/17 04:27:33;;;;;;;14.35;5.20;;;;;;;;;;5072859;28;20112;-82
2021/10/17 04:30:09;;;;;;;16.30;5.18;;;;;;;;;;5061281;28;20063;-81
2021/10/17 04:32:58;;;;;;;15.90;5.53;;;;;;;;;;5061564;28;20127;-81
2021/10/17 04:35:34;;;;;;;21.15;5.50;;;;;;;;;;5061859;28;20079;-81
2021/10/17 04:38:02;;;;;;;13.60;5.70;;;;;;;;;;5067512;28;20056;-81
2021/10/17 04:40:31;;;;;;;20.65;6.53;;;;;;;;;;5061475;28;20052;-81
2021/10/17 04:42:59;;;;;;;17.50;5.63;;;;;;;;;;5076406;28;20097;-83
2021/10/17 04:45:26;;;;;;;18.27;5.47;;;;;;;;;;5069190;28;20066;-82
2021/10/17 04:48:05;;;;;;;14.77;5.63;;;;;;;;;;5079108;28;20052;-82
2021/10/17 04:51:03;;;;;;;22.63;6.95;;;;;;;;;;5069536;28;20048;-83
2021/10/17 04:53:39;;;;;;;22.33;6.57;;;;;;;;;;5066877;28;20062;-82
2021/10/17 04:56:29;;;;;;;14.75;6.43;;;;;;;;;;5091349;28;20060;-82
2021/10/17 04:59:09;;;;;;;18.33;6.97;;;;;;;;;;5080631;28;20059;-82
2021/10/17 05:01:40;;;;;;;15.05;6.28;;;;;;;;;;5099321;28;20048;-83
2021/10/17 05:04:12;;;;;;;19.48;6.72;;;;;;;;;;5078271;28;20235;-82
2021/10/17 05:06:48;;;;;;;12.73;6.45;;;;;;;;;;5100643;28;20055;-82
2021/10/17 05:09:37;;;;;;;20.00;7.15;;;;;;;;;;5077685;28;20059;-82
2021/10/17 05:12:11;;;;;;;14.10;6.38;;;;;;;;;;5094470;28;20154;-82
2021/10/17 05:14:44;;;;;;;21.48;6.32;;;;;;;;;;5099724;28;20102;-82
2021/10/17 05:17:18;;;;;;;17.90;6.05;;;;;;;;;;5077900;28;20048;-82
2021/10/17 05:19:55;;;;;;;24.05;7.13;;;;;;;;;;5098511;28;20063;-82
2021/10/17 05:22:26;;;;;;;19.40;7.22;;;;;;;;;;5080211;28;20214;-82
2021/10/17 05:24:58;;;;;;;18.65;6.05;;;;;;;;;;5082048;28;20074;-82
2021/10/17 05:27:29;;;;;;;14.45;6.45;;;;;;;;;;5081541;28;20040;-82
2021/10/17 05:29:56;;;;;;;15.02;5.63;;;;;;;;;;5077711;28;20058;-82
2021/10/17 05:32:23;;;;;;;18.27;6.68;;;;;;;;;;5114468;28;20390;-82
2021/10/17 05:34:50;;;;;;;19.02;6.90;;;;;;;;;;5098616;28;20047;-82
2021/10/17 05:37:17;;;;;;;21.08;6.13;;;;;;;;;;5084894;28;20048;-82
2021/10/17 05:39:44;;;;;;;15.45;6.25;;;;;;;;;;5080631;28;20041;-82
2021/10/17 05:42:12;;;;;;;19.98;7.10;;;;;;;;;;5079000;28;20052;-82
2021/10/17 05:44:39;;;;;;;15.57;7.07;;;;;;;;;;5089737;28;20124;-82
2021/10/17 05:47:12;;;;;;;20.17;7.20;;;;;;;;;;5113801;28;20070;-82
2021/10/17 05:49:39;;;;;;;15.25;6.90;;;;;;;;;;5067788;28;20048;-82
2021/10/17 05:52:07;;;;;;;22.23;7.53;;;;;;;;;;5096981;28;20063;-80
2021/10/17 05:54:34;;;;;;;16.92;7.68;;;;;;;;;;5076275;28;20106;-82
2021/10/17 05:57:03;;;;;;;15.88;6.88;;;;;;;;;;5075630;28;20259;-82
2021/10/17 05:59:33;;;;;;;22.35;7.80;;;;;;;;;;5079006;28;20104;-82
2021/10/17 06:02:00;;;;;;;19.83;6.97;;;;;;;;;;5073306;28;20253;-83
2021/10/17 06:04:27;;;;;;;23.08;8.02;;;;;;;;;;5076857;28;20443;-82
2021/10/17 06:06:59;;;;;;;13.93;7.47;;;;;;;;;;5095506;28;20098;-82
2021/10/17 06:09:26;;;;;;;23.58;7.65;;;;;;;;;;5100660;28;20058;-82
2021/10/17 06:11:54;;;;;;;17.02;7.28;;;;;;;;;;5077091;28;20425;-82
2021/10/17 06:14:21;;;;;;;23.08;7.55;;;;;;;;;;5080099;28;20456;-82
2021/10/17 06:16:58;;;;;;;28.02;8.27;;;;;;;;;;5077921;28;20040;-82
2021/10/17 06:19:27;;;;;;;19.95;7.18;;;;;;;;;;5097280;28;20048;-82
2021/10/17 06:21:55;;;;;;;20.48;7.60;;;;;;;;;;5096193;28;20040;-82
2021/10/17 06:24:23;;;;;;;21.42;7.80;;;;;;;;;;5097222;28;20180;-82
2021/10/17 06:27:00;;;;;;;20.52;7.00;;;;;;;;;;5071322;28;20114;-82
2021/10/17 06:29:52;;;;;;;20.98;7.20;;;;;;;;;;5075188;28;20270;-82
2021/10/17 06:32:29;;;;;;;24.48;7.32;;;;;;;;;;5087796;28;20120;-82
2021/10/17 06:35:13;;;;;;;17.65;6.82;;;;;;;;;;5078676;28;20052;-82
2021/10/17 06:37:48;;;;;;;;;;;;;;;;;;5077597;28;20121;-82
2021/10/17 06:40:15;;;;;;;17.88;6.95;;;;;;;;;;5070164;28;19928;-82
2021/10/17 06:42:44;;;;;;;20.42;7.00;;;;;;;;;;5097762;28;20551;-82
2021/10/17 06:45:12;;;;;;;25.90;6.95;;;;;;;;;;5102586;28;20063;-82
2021/10/17 06:47:39;;;;;;;18.70;6.72;;;;;;;;;;5111408;28;20048;-82
2021/10/17 06:50:06;;;;;;;20.77;7.25;;;;;;;;;;5101519;28;20348;-83
2021/10/17 06:52:33;;;;;;;18.77;6.18;;;;;;;;;;5067331;28;20114;-82
2021/10/17 06:55:00;;;;;;;19.65;6.90;;;;;;;;;;5071504;28;20068;-82
2021/10/17 06:57:56;;;;;;;20.35;6.68;;;;;;;;;;5077900;28;20043;-82
2021/10/17 07:00:34;;;;;;;15.90;6.85;;;;;;;;;;5072336;28;20128;-82
2021/10/17 07:03:45;;;;;;;22.45;7.35;;;;;;;;;;5092916;28;20136;-81
2021/10/17 07:09:29;;;;;;;15.23;7.45;;;;;;;;;;5096405;28;20060;-82
2021/10/17 07:12:01;;;;;;;23.30;8.05;;;;;;;;;;5073577;28;20066;-82
2021/10/17 07:14:41;;;;;;;18.25;7.18;;;;;;;;;;5076689;28;20104;-82
2021/10/17 07:17:25;;;;;;;19.65;6.60;;;;;;;;;;5078260;28;20111;-82
2021/10/17 07:20:04;;;;;;;19.08;7.60;;;;;;;;;;5085463;28;20060;-82
2021/10/17 07:22:47;;;;;;;18.40;6.75;;;;;;;;;;5102680;28;20116;-82
2021/10/17 07:25:22;;;;;;;;;;;;;;;;;;5088950;28;20048;-82
2021/10/17 07:27:59;;;;;;;13.25;5.93;;;;;;;;;;5087069;28;19972;-82
2021/10/17 07:30:28;;;;;;;25.40;7.55;;;;;;;;;;5107693;28;20227;-81
2021/10/17 07:33:19;;;;;;;17.27;6.57;;;;;;;;;;5103276;28;20048;-82
2021/10/17 07:35:58;;;;;;;18.27;6.97;;;;;;;;;;5087358;28;20140;-82
2021/10/17 07:38:36;;;;;;;17.45;6.53;;;;;;;;;;5089420;28;20040;-83
2021/10/17 07:41:11;;;;;;;22.60;6.72;;;;;;;;;;5098818;28;20634;-84
2021/10/17 07:43:48;;;;;;;23.25;7.18;;;;;;;;;;5099422;28;20320;-84
2021/10/17 07:46:28;;;;;;;20.17;6.73;;;;;;;;;;5073751;28;20052;-82
2021/10/17 07:49:10;;;;;;;13.20;7.03;;;;;;;;;;5072806;28;20075;-81
2021/10/17 07:51:58;;;;;;;21.40;6.53;;;;;;;;;;5079995;28;20066;-83
2021/10/17 07:54:38;;;;;;;18.55;6.57;;;;;;;;;;5072236;28;20321;-83
2021/10/17 07:57:26;;;;;;;19.50;6.65;;;;;;;;;;5082732;28;20055;-83
2021/10/17 08:00:02;;;;;;;18.73;6.35;;;;;;;;;;5075962;28;20240;-83
2021/10/17 08:02:42;;;;;;;19.25;6.80;;;;;;;;;;5074718;28;20048;-82
2021/10/17 08:05:18;;;;;;;16.55;6.60;;;;;;;;;;5079644;28;20098;-82
2021/10/17 08:07:55;;;;;;;18.52;6.30;;;;;;;;;;5096518;28;20283;-83
2021/10/17 08:10:52;;;;;;;19.20;6.28;;;;;;;;;;5053140;28;20417;-83
2021/10/17 08:13:36;;;;;;;;;;;;;;;;;;;;;
2021/10/17 08:16:25;;;;;;;17.13;5.85;;;;;;;;;;5048995;28;20156;-83
2021/10/17 08:19:17;;;;;;;20.25;6.50;;;;;;;;;;5052701;28;20052;-83
2021/10/17 08:21:53;;;;;;;17.23;5.45;;;;;;;;;;5037760;28;20075;-82
2021/10/17 08:24:22;;;;;;;13.15;5.47;;;;;;;;;;5053393;28;20048;-81
2021/10/17 08:27:43;;;;;;;13.85;6.18;;;;;;;;;;5036744;28;20057;-82
2021/10/17 08:30:16;;;;;;;21.10;6.95;;;;;;;;;;5052189;28;20056;-82
2021/10/17 08:33:01;;;;;;;15.02;6.40;;;;;;;;;;5038112;28;20080;-83
2021/10/17 08:35:29;;;;;;;12.23;5.35;;;;;;;;;;5034379;28;20052;-82
2021/10/17 08:38:07;;;;;;;13.98;5.28;;;;;;;;;;5048877;28;20045;-82
2021/10/17 08:40:42;;;;;;;15.30;5.68;;;;;;;;;;5058650;28;20053;-83
2021/10/17 08:43:21;;;;;;;17.67;5.57;;;;;;;;;;5092782;28;20054;-82
2021/10/17 08:46:04;;;;;;;16.80;5.97;;;;;;;;;;5073771;28;20046;-83
2021/10/17 08:48:34;;;;;;;14.70;5.43;;;;;;;;;;5069293;28;20044;-82
2021/10/17 08:51:13;;;;;;;16.77;5.22;;;;;;;;;;5067911;28;20040;-82
2021/10/17 08:53:53;;;;;;;14.05;5.45;;;;;;;;;;5089616;28;20110;-83
2021/10/17 08:56:36;;;;;;;13.82;5.03;;;;;;;;;;5096903;28;20064;-83
2021/10/17 08:59:19;;;;;;;11.07;4.32;;;;;;;;;;5106773;28;20047;-83
2021/10/17 09:01:58;;;;;;;19.33;5.90;;;;;;;;;;5102929;28;20067;-83
2021/10/17 09:04:58;;;;;;;17.20;6.40;;;;;;;;;;5073473;28;20068;-84
2021/10/17 09:07:33;;;;;;;16.15;5.25;;;;;;;;;;5084697;28;20048;-82
2021/10/17 09:10:29;;;;;;;15.32;5.80;;;;;;;;;;5078584;28;20107;-82
2021/10/17 09:13:15;;;;;;;15.73;5.47;;;;;;;;;;5085016;28;20040;-82
2021/10/17 09:15:57;;;;;;;12.77;4.65;;;;;;;;;;5077611;28;20112;-82
2021/10/17 09:22:14;;;;;;;17.73;5.75;;;;;;;;;;5083031;28;20060;-82
2021/10/17 09:24:45;;;;;;;14.25;6.03;;;;;;;;;;5078588;28;20468;-82
2021/10/17 09:27:15;;;;;;;15.57;5.85;;;;;;;;;;5068719;28;20048;-82
2021/10/17 09:29:49;;;;;;;16.52;5.22;;;;;;;;;;5073488;28;20118;-82
2021/10/17 09:32:17;;;;;;;13.77;5.30;;;;;;;;;;5074348;28;20062;-83
2021/10/17 09:34:56;;;;;;;17.13;5.18;;;;;;;;;;5076971;28;20058;-82
2021/10/17 09:37:48;;;;;;;12.50;4.70;;;;;;;;;;5104046;28;20075;-82
2021/10/17 09:40:32;;;;;;;14.65;5.15;;;;;;;;;;5096322;28;20052;-82
2021/10/17 09:43:26;;;;;;;16.15;5.43;;;;;;;;;;5081900;28;20405;-82
2021/10/17 09:46:14;;;;;;;15.05;5.47;;;;;;;;;;5107977;28;20052;-82
2021/10/17 09:49:10;;;;;;;;;;;;;;;;;;;;;
2021/10/17 09:51:45;;;;;;;16.73;4.93;;;;;;;;;;5108534;28;20074;-83
2021/10/17 09:57:42;;;;;;;14.70;4.80;;;;;;;;;;5107184;28;20038;-83
2021/10/17 10:00:25;;;;;;;13.88;5.40;;;;;;;;;;5085608;28;20048;-83
2021/10/17 10:06:30;;;;;;;17.10;4.90;;;;;;;;;;5099544;28;20386;-83
2021/10/17 10:09:29;;;;;;;17.33;4.57;;;;;;;;;;5069619;28;20112;-83
2021/10/17 10:12:03;;;;;;;12.30;3.72;;;;;;;;;;5092183;28;20047;-83
2021/10/17 10:17:36;;;;;;;10.15;4.43;;;;;;;;;;5069319;28;20054;-83
2021/10/17 10:20:14;;;;;;;13.77;3.90;;;;;;;;;;5074353;28;20570;-83
2021/10/17 10:22:46;;;;;;;14.02;3.92;;;;;;;;;;5057837;28;20385;-83
2021/10/17 10:25:16;;;;;;;13.13;4.03;;;;;;;;;;5069198;28;20416;-82
2021/10/17 10:28:16;;;;;;;11.07;3.88;;;;;;;;;;5075266;28;20311;-83
2021/10/17 10:31:29;;;;;;;9.80;3.88;;;;;;;;;;5074561;28;20047;-83
2021/10/17 10:34:02;;;;;;;11.65;3.65;;;;;;;;;;5064044;28;20151;-83
2021/10/17 10:40:06;;;;;;;11.13;4.03;;;;;;;;;;5073851;28;20148;-83
2021/10/17 10:42:44;;;;;;;14.85;4.20;;;;;;;;;;5089735;28;20044;-82
2021/10/17 10:45:30;;;;;;;12.20;3.58;;;;;;;;;;5089508;28;20602;-82
2021/10/17 10:48:12;;;;;;;9.88;3.58;;;;;;;;;;5068753;28;20118;-82
2021/10/17 10:50:53;;;;;;;9.35;3.78;;;;;;;;;;5067641;28;20383;-82
2021/10/17 10:53:58;;;;;;;10.32;4.13;;;;;;;;;;5090031;28;20043;-83
2021/10/17 10:56:59;;;;;;;13.10;3.80;;;;;;;;;;5071824;28;20063;-81
2021/10/17 10:59:50;;;;;;;12.57;3.83;;;;;;;;;;5068174;28;20052;-82
2021/10/17 11:02:24;;;;;;;9.10;3.47;;;;;;;;;;5031122;28;20341;-81
2021/10/17 11:05:09;;;;;;;10.57;3.75;;;;;;;;;;5074117;28;20082;-83
2021/10/17 11:07:51;;;;;;;16.08;3.75;;;;;;;;;;5067161;28;20048;-82
2021/10/17 11:10:41;;;;;;;15.07;4.25;;;;;;;;;;5071657;28;20044;-82
2021/10/17 11:13:36;;;;;;;13.05;3.67;;;;;;;;;;5044357;28;20075;-82
2021/10/17 11:16:30;;;;;;;13.18;3.72;;;;;;;;;;5080861;28;20055;-83
2021/10/17 11:19:14;;;;;;;12.55;3.22;;;;;;;;;;5079763;28;20611;-82
2021/10/17 11:22:06;;;;;;;10.75;3.40;;;;;;;;;;5065009;28;20098;-82
2021/10/17 11:24:41;;;;;;;11.30;3.40;;;;;;;;;;5072480;28;20343;-81
2021/10/17 11:27:15;;;;;;;10.15;3.15;;;;;;;;;;5073014;28;20056;-81
2021/10/17 11:29:50;;;;;;;13.02;3.22;;;;;;;;;;5073921;28;20071;-81
2021/10/17 11:32:34;;;;;;;8.88;3.17;;;;;;;;;;5093778;28;20055;-83
2021/10/17 11:35:23;;;;;;;12.25;4.10;;;;;;;;;;5077810;28;20059;-81
2021/10/17 11:37:52;;;;;;;;;;;;;;;;;;5073019;28;20048;-81
2021/10/17 11:40:35;;;;;;;8.48;3.00;;;;;;;;;;5094536;28;19931;-80
2021/10/17 11:43:05;;;;;;;11.15;3.10;;;;;;;;;;5072728;28;20279;-82
2021/10/17 11:45:35;;;;;;;14.00;3.88;;;;;;;;;;5072388;28;20048;-81
2021/10/17 11:48:33;;;;;;;13.63;3.00;;;;;;;;;;5056271;28;20109;-82
2021/10/17 11:51:56;;;;;;;;;;;;;;;;;;;;;
2021/10/17 11:54:45;;;;;;;8.48;3.15;;;;;;;;;;5060900;28;20163;-82
2021/10/17 11:57:40;;;;;;;11.75;3.55;;;;;;;;;;5074631;28;20117;-82
2021/10/17 12:00:17;;;;;;;14.00;3.92;;;;;;;;;;5055892;28;20052;-83
2021/10/17 12:03:32;;;;;;;;;;;;;;;;;;;;;
2021/10/17 12:06:41;;;;;;;10.80;3.28;;;;;;;;;;5095481;28;20107;-83
2021/10/17 12:09:19;;;;;;;11.15;3.90;;;;;;;;;;5070051;28;20113;-83
2021/10/17 12:12:05;;;;;;;12.20;4.18;;;;;;;;;;5072577;28;20048;-82
2021/10/17 12:15:02;;;;;;;8.70;3.60;;;;;;;;;;5074051;28;20063;-82
2021/10/17 12:18:19;;;;;;;12.40;3.65;;;;;;;;;;5078801;28;20298;-82
2021/10/17 12:21:01;;;;;;;44.70;5.82;;;;;;;;;;5082055;28;20112;-83
2021/10/17 12:24:10;;;;;;;10.68;3.70;;;;;;;;;;5089742;28;20112;-83
2021/10/17 12:26:54;;;;;;;15.57;3.92;;;;;;;;;;5089713;28;20218;-83
2021/10/17 12:29:39;;;;;;;14.13;3.90;;;;;;;;;;5096915;28;20036;-84
2021/10/17 12:33:10;;;;;;;13.70;3.67;;;;;;;;;;5084298;28;20042;-83
2021/10/17 12:35:56;;;;;;;11.45;4.22;;;;;;;;;;5093894;28;20089;-83
2021/10/17 12:42:39;;;;;;;;;;;;;;;;;;;;;
2021/10/17 12:45:40;;;;;;;10.80;4.75;;;;;;;;;;5104233;28;20062;-83
2021/10/17 12:48:33;;;;;;;10.80;3.60;;;;;;;;;;5083488;28;20056;-83
2021/10/17 12:52:00;;;;;;;10.07;4.15;;;;;;;;;;5069124;28;20059;-84
2021/10/17 12:54:33;;;;;;;15.00;4.47;;;;;;;;;;4990177;28;20231;-83
2021/10/17 12:57:20;;;;;;;13.10;4.50;;;;;;;;;;5002178;28;20299;-83
2021/10/17 12:59:57;;;;;;;13.33;4.73;;;;;;;;;;4999394;28;20061;-83
2021/10/17 13:02:53;;;;;;;18.05;4.88;;;;;;;;;;4942715;28;20459;-83
2021/10/17 13:05:47;;;;;;;11.27;4.20;;;;;;;;;;4984475;28;20054;-83
2021/10/17 13:08:31;;;;;;;15.40;4.45;;;;;;;;;;4983871;28;20058;-83
2021/10/17 13:11:37;;;;;;;14.65;4.82;;;;;;;;;;4983851;28;20066;-83
2021/10/17 13:14:09;;;;;;;10.10;4.35;;;;;;;;;;4963820;28;20058;-83
2021/10/17 13:17:04;;;;;;;13.95;5.35;;;;;;;;;;4983920;28;20043;-84
2021/10/17 13:23:06;;;;;;;19.10;5.43;;;;;;;;;;4983034;28;20058;-83
2021/10/17 13:26:12;;;;;;;17.23;5.93;;;;;;;;;;4992364;28;20072;-83
2021/10/17 13:28:44;;;;;;;16.65;4.90;;;;;;;;;;4990301;28;20046;-82
2021/10/17 13:31:24;;;;;;;11.25;4.03;;;;;;;;;;4992903;28;20109;-82
2021/10/17 13:34:05;;;;;;;15.18;4.70;;;;;;;;;;4976546;28;20058;-82
2021/10/17 13:36:45;;;;;;;16.42;4.93;;;;;;;;;;4993107;28;20106;-82
2021/10/17 13:39:37;;;;;;;12.68;4.82;;;;;;;;;;5018284;28;20294;-82
2021/10/17 13:42:12;;;;;;;16.30;5.80;;;;;;;;;;5091023;28;20109;-82
2021/10/17 13:44:51;;;;;;;15.85;4.65;;;;;;;;;;5091165;28;20079;-82
2021/10/17 13:47:34;;;;;;;14.63;4.53;;;;;;;;;;5071449;28;20161;-83
2021/10/17 13:50:14;;;;;;;15.38;5.10;;;;;;;;;;5074001;28;20063;-82
2021/10/17 13:52:56;;;;;;;13.90;4.65;;;;;;;;;;5081957;28;20044;-82
2021/10/17 13:55:42;;;;;;;15.82;4.68;;;;;;;;;;5100820;28;20094;-83
2021/10/17 13:58:12;;;;;;;11.85;4.70;;;;;;;;;;5073165;28;20394;-83
2021/10/17 14:00:55;;;;;;;11.60;4.63;;;;;;;;;;5076241;28;20048;-83
2021/10/17 14:03:46;;;;;;;12.27;4.50;;;;;;;;;;5094788;28;20052;-84
2021/10/17 14:06:34;;;;;;;16.60;4.07;;;;;;;;;;5063119;28;20048;-82
2021/10/17 14:09:10;;;;;;;10.70;4.88;;;;;;;;;;5054628;28;20227;-82
2021/10/17 14:11:50;;;;;;;13.55;5.80;;;;;;;;;;5073439;28;20052;-82
2021/10/17 14:14:30;;;;;;;15.15;5.55;;;;;;;;;;5069483;28;20061;-83
2021/10/17 14:17:16;;;;;;;11.38;4.95;;;;;;;;;;5054126;28;20056;-83
2021/10/17 14:19:52;;;;;;;11.75;6.85;;;;;;;;;;5065292;28;20119;-83
2021/10/17 14:22:50;;;;;;;12.90;4.22;;;;;;;;;;5042162;28;20049;-82
2021/10/17 14:25:36;;;;;;;9.52;3.63;;;;;;;;;;5057400;28;20097;-82
2021/10/17 14:28:22;;;;;;;9.20;4.25;;;;;;;;;;5054850;28;20056;-82
2021/10/17 14:31:06;;;;;;;11.02;4.22;;;;;;;;;;5072973;28;20044;-82
2021/10/17 14:33:51;;;;;;;10.68;4.75;;;;;;;;;;5074450;28;20070;-83
2021/10/17 14:39:47;;;;;;;11.63;4.18;;;;;;;;;;5099284;28;20097;-82
2021/10/17 14:42:33;;;;;;;11.75;5.03;;;;;;;;;;5076885;28;20249;-82
2021/10/17 14:45:12;;;;;;;19.73;6.55;;;;;;;;;;5074303;28;20103;-83
2021/10/17 14:47:49;;;;;;;11.05;4.40;;;;;;;;;;5070899;28;20067;-83
2021/10/17 14:50:46;;;;;;;14.73;4.50;;;;;;;;;;5072179;28;20215;-83
2021/10/17 14:53:31;;;;;;;20.70;8.23;;;;;;;;;;5067153;28;20057;-84
2021/10/17 14:56:27;;;;;;;13.85;6.45;;;;;;;;;;5070688;28;20048;-83
2021/10/17 14:59:29;;;;;;;16.35;5.40;;;;;;;;;;5075102;28;20046;-82
2021/10/17 15:02:15;;;;;;;14.88;4.65;;;;;;;;;;5063176;28;20048;-82
2021/10/17 15:05:09;;;;;;;11.98;4.35;;;;;;;;;;5074568;28;20130;-83
2021/10/17 15:07:43;;;;;;;12.93;7.30;;;;;;;;;;5093356;28;20044;-83
2021/10/17 15:13:17;;;;;;;14.00;5.47;;;;;;;;;;5090384;28;20048;-82
2021/10/17 15:16:13;;;;;;;;;;;;;;;;;;;;;
2021/10/17 15:18:57;;;;;;;20.23;5.43;;;;;;;;;;5095096;28;20048;-82
2021/10/17 15:21:52;;;;;;;9.98;4.63;;;;;;;;;;5091917;28;20046;-83
2021/10/17 15:24:33;;;;;;;15.38;5.65;;;;;;;;;;5070806;28;20052;-83
2021/10/17 15:27:32;;;;;;;15.85;5.05;;;;;;;;;;5089285;28;20481;-82
2021/10/17 15:30:24;;;;;;;12.20;5.00;;;;;;;;;;5074817;28;20056;-82
2021/10/17 15:36:15;;;;;;;14.98;4.78;;;;;;;;;;5077293;28;20060;-83
2021/10/17 15:38:57;;;;;;;17.85;5.30;;;;;;;;;;5078244;28;20479;-82
2021/10/17 15:42:00;;;;;;;16.70;5.50;;;;;;;;;;5080365;28;20054;-82
2021/10/17 15:44:44;;;;;;;14.48;5.90;;;;;;;;;;5086282;28;20221;-82
2021/10/17 15:47:34;;;;;;;15.02;4.55;;;;;;;;;;5088536;28;20189;-83
2021/10/17 15:50:23;;;;;;;12.10;4.90;;;;;;;;;;5074060;28;20076;-83
2021/10/17 15:53:07;;;;;;;12.63;4.80;;;;;;;;;;5074524;28;20091;-83
2021/10/17 15:55:51;;;;;;;15.27;5.53;;;;;;;;;;5084987;28;20079;-83
2021/10/17 15:58:21;;;;;;;12.13;4.93;;;;;;;;;;5094970;28;20047;-82
2021/10/17 16:00:49;;;;;;;21.65;6.32;;;;;;;;;;5076752;28;20110;-83
2021/10/17 16:03:23;;;;;;;17.77;7.70;;;;;;;;;;5052793;28;20379;-83
2021/10/17 16:06:13;;;;;;;12.38;5.55;;;;;;;;;;5022374;28;20443;-83
2021/10/17 16:09:08;;;;;;;11.05;6.25;;;;;;;;;;5075667;28;20308;-82
2021/10/17 16:11:49;;;;;;;15.70;6.18;;;;;;;;;;5089789;28;20094;-82
2021/10/17 16:14:27;;;;;;;19.23;7.82;;;;;;;;;;5072827;28;20091;-82
2021/10/17 16:17:02;;;;;;;17.15;6.38;;;;;;;;;;5075474;28;20055;-82
2021/10/17 16:19:36;;;;;;;12.57;4.82;;;;;;;;;;5073591;28;20117;-82
2021/10/17 16:22:23;;;;;;;15.95;6.90;;;;;;;;;;5088714;28;20143;-83
2021/10/17 16:25:09;;;;;;;19.02;6.28;;;;;;;;;;5088090;28;20051;-83
2021/10/17 16:27:49;;;;;;;13.18;5.93;;;;;;;;;;5072326;28;20306;-83
2021/10/17 16:30:32;;;;;;;15.52;6.00;;;;;;;;;;5091543;28;20325;-83
2021/10/17 16:33:50;;;;;;;16.90;6.65;;;;;;;;;;5064994;28;20083;-85